マドリード/バラハス の空港の天気 - METARとTAF

マドリード・バラハス国際空港 ( LEMD / MAD ) - スペイン マドリード
飛行場実況気象(Metar)
観測時間08/04 20:30 CEST (08/04 18:30 UTC)
風向・風速西北西 5m/s
視程10km以上
天気現象
なし
気温31℃
湿度19%
気圧1016hPa
METARLEMD 041830Z 29009KT CAVOK 31/05 Q1016 NOSIG
過去の天気等 Google飛行場航空写真 Wunderground天気予報

過去48時間のMETAR

飛行場予報(TAF)
発表時間: 8/04 19:00 CEST (8/04 17:00 UTC)
予報対象時間: 4日20時 CEST ~ 6日2時 CEST
風向・風速北西 6m/s
視程10km以上
なし
4日20時 CEST ~ 4日22時 CEST に 確率 30% で一時的に
風向・風速北西 8m/s 瞬間風速 13m/s
4日21時 CEST ~ 4日23時 CEST に徐々に
風向・風速不定 3m/s
5日13時 CEST ~ 5日20時 CEST に一時的に
風向・風速南西 5m/s
5日17時 CEST ~ 5日20時 CEST に 確率 30% で一時的に
風向・風速南西 6m/s 瞬間風速 11m/s
5日20時 CEST ~ 5日21時 CEST に徐々に
風向・風速北西 5m/s
TAF LEMD 041700Z 0418/0524 31012KT CAVOK TX35/0515Z TN17/0505Z
PROB30 TEMPO 0418/0420 32015G25KT
BECMG 0419/0421 VRB05KT
TEMPO 0511/0518 23010KT
PROB30 TEMPO 0515/0518 23011G22KT
BECMG 0518/0519 32010KT